Time;durP1;ratioP1;P1;durP2;ratioP2;P2;SDS_P1;SDS_P2;PMS_P1;PMS_P2;Temp;Humidity;BMP_temperature;BMP_pressure;BME280_temperature;BME280_humidity;BME280_pressure;Samples;Min_cycle;Max_cycle;Signal;HPM_P1;HPM_P2
2023/11/16 00:02:21;;;;;;;;;0.00;0.00;;;;;13.02;100.00;101706.06;5056734;28;47362;-81
2023/11/16 00:04:48;;;;;;;;;0.00;0.00;;;;;13.02;100.00;101714.81;5076040;27;45394;-81
2023/11/16 00:07:13;;;;;;;;;0.00;0.00;;;;;13.03;100.00;101702.59;5078627;27;45365;-81
2023/11/16 00:09:39;;;;;;;;;0.00;0.00;;;;;13.02;100.00;101700.84;5086608;27;45453;-82
2023/11/16 00:12:04;;;;;;;;;0.00;0.00;;;;;13.00;100.00;101692.19;5077739;27;74737;-81
2023/11/16 00:14:31;;;;;;;;;0.00;0.00;;;;;13.01;100.00;101686.94;5077422;27;45634;-81
2023/11/16 00:16:58;;;;;;;;;0.00;0.00;;;;;13.02;100.00;101679.94;5077642;28;45410;-82
2023/11/16 00:19:23;;;;;;;;;0.00;0.00;;;;;13.01;100.00;101676.47;5077531;28;45331;-81
2023/11/16 00:21:50;;;;;;;;;0.00;0.00;;;;;13.01;100.00;101665.16;5077053;27;45467;-81
2023/11/16 00:24:16;;;;;;;;;0.00;0.00;;;;;13.02;100.00;101657.31;5094457;27;45311;-82
2023/11/16 00:26:41;;;;;;;;;0.00;0.00;;;;;13.03;100.00;101653.78;5077218;27;45315;-81
2023/11/16 00:29:07;;;;;;;;;0.00;0.00;;;;;13.03;100.00;101655.53;5078566;28;45345;-81
2023/11/16 00:31:32;;;;;;;;;0.00;0.00;;;;;13.04;100.00;101641.56;5076414;27;68081;-81
2023/11/16 00:33:57;;;;;;;;;0.00;0.00;;;;;13.06;100.00;101637.19;5076342;28;67055;-82
2023/11/16 00:36:23;;;;;;;;;0.00;0.00;;;;;13.05;100.00;101638.91;5076184;27;60481;-82
2023/11/16 00:38:49;;;;;;;;;0.00;0.00;;;;;13.06;100.00;101637.19;5077329;28;45587;-82
2023/11/16 00:41:15;;;;;;;;;0.00;0.00;;;;;13.07;100.00;101636.25;5078006;27;46911;-81
2023/11/16 00:43:41;;;;;;;;;0.00;0.00;;;;;13.07;100.00;101621.44;5078376;27;45443;-81
2023/11/16 00:46:09;;;;;;;;;0.00;0.00;;;;;13.06;100.00;101613.66;5078344;27;45409;-81
2023/11/16 00:48:35;;;;;;;;;0.00;0.00;;;;;13.06;100.00;101617.13;5078418;27;45345;-82
2023/11/16 00:51:01;;;;;;;;;0.00;0.00;;;;;13.07;100.00;101602.28;5059665;28;48033;-81
2023/11/16 00:53:27;;;;;;;;;0.00;0.00;;;;;13.05;100.00;101606.69;5078116;27;45308;-81
2023/11/16 00:55:52;;;;;;;;;0.00;0.00;;;;;13.04;100.00;101616.31;5060125;28;45288;-82
2023/11/16 00:58:20;;;;;;;;;0.00;0.00;;;;;13.03;100.00;101617.19;5059824;28;47437;-82
2023/11/16 01:00:47;;;;;;;;;0.00;0.00;;;;;13.00;100.00;101609.44;5076690;28;45444;-82
2023/11/16 01:03:13;;;;;;;;;0.00;0.00;;;;;12.97;100.00;101605.13;5076720;27;45393;-81
2023/11/16 01:05:38;;;;;;;;;0.00;0.00;;;;;12.97;100.00;101602.50;5076484;27;45303;-82
2023/11/16 01:08:09;;;;;;;;;0.00;0.00;;;;;12.96;100.00;101590.38;5075789;28;68430;-82
2023/11/16 01:10:34;;;;;;;;;0.00;0.00;;;;;12.94;100.00;101586.06;5077523;27;47133;-81
2023/11/16 01:13:07;;;;;;;;;0.00;0.00;;;;;12.91;100.00;101588.75;5076703;28;45592;-82
2023/11/16 01:15:32;;;;;;;;;0.00;0.00;;;;;12.86;100.00;101578.41;5078033;27;45423;-82
2023/11/16 01:18:05;;;;;;;;;0.00;0.00;;;;;12.88;100.00;101579.22;5075539;28;45510;-82
2023/11/16 01:20:34;;;;;;;;;0.00;0.00;;;;;12.85;100.00;101571.50;5077345;27;46694;-82
2023/11/16 01:23:11;;;;;;;;;0.00;0.00;;;;;12.87;100.00;101576.66;5076599;28;45431;-82
2023/11/16 01:25:40;;;;;;;;;0.00;0.00;;;;;12.86;100.00;101574.94;5076532;28;45393;-82
2023/11/16 01:28:10;;;;;;;;;0.00;0.00;;;;;12.88;100.00;101575.75;5076570;28;45403;-82
2023/11/16 01:30:36;;;;;;;;;0.00;0.00;;;;;12.86;100.00;101565.34;5075973;28;46463;-82
2023/11/16 01:33:04;;;;;;;;;0.00;0.00;;;;;12.87;100.00;101556.63;5076409;28;45494;-81
2023/11/16 01:35:29;;;;;;;;;0.00;0.00;;;;;12.86;100.00;101549.66;5077272;27;45435;-82
2023/11/16 01:37:56;;;;;;;;;0.00;0.00;;;;;12.85;100.00;101550.59;5077688;28;45411;-81
2023/11/16 01:40:24;;;;;;;;;0.00;0.00;;;;;12.88;100.00;101547.88;5077343;28;47112;-81
2023/11/16 01:42:49;;;;;;;;;0.00;0.00;;;;;12.90;100.00;101550.44;5077181;27;45358;-82
2023/11/16 01:45:27;;;;;;;;;0.00;0.00;;;;;12.91;100.00;101552.19;5076109;28;45407;-82
2023/11/16 01:47:53;;;;;;;;;0.00;0.00;;;;;12.90;100.00;101546.06;5076107;27;45560;-82
2023/11/16 01:50:18;;;;;;;;;0.00;0.00;;;;;12.92;100.00;101553.88;5074797;27;70959;-81
2023/11/16 01:52:44;;;;;;;;;0.00;0.00;;;;;12.95;100.00;101553.81;5059055;28;45542;-81
2023/11/16 01:55:09;;;;;;;;;0.00;0.00;;;;;12.98;100.00;101540.66;5075926;28;47438;-81
2023/11/16 01:57:35;;;;;;;;;0.00;0.00;;;;;12.99;100.00;101542.38;5077184;27;45588;-82
2023/11/16 02:00:00;;;;;;;;;0.00;0.00;;;;;13.00;100.00;101544.09;5077247;27;46323;-82
2023/11/16 02:02:28;;;;;;;;;0.00;0.00;;;;;12.99;100.00;101539.75;5077147;28;45362;-82
2023/11/16 02:04:54;;;;;;;;;0.00;0.00;;;;;13.01;100.00;101548.41;5057478;28;69444;-82
2023/11/16 02:07:19;;;;;;;;;0.00;0.00;;;;;13.01;100.00;101540.56;5075893;28;45445;-82
2023/11/16 02:09:47;;;;;;;;;0.00;0.00;;;;;13.01;100.00;101534.50;5058818;28;47475;-82
2023/11/16 02:12:12;;;;;;;;;0.00;0.00;;;;;13.02;100.00;101533.59;5075749;28;45390;-82
2023/11/16 02:14:37;;;;;;;;;0.00;0.00;;;;;12.98;100.00;101528.47;5075207;28;57237;-82
2023/11/16 02:17:03;;;;;;;;;0.00;0.00;;;;;13.01;100.00;101534.50;5075828;28;70321;-82
2023/11/16 02:19:33;;;;;;;;;0.00;0.00;;;;;13.01;100.00;101516.22;5075118;27;46348;-82
2023/11/16 02:21:58;;;;;;;;;0.00;0.00;;;;;13.02;100.00;101515.28;5076601;27;45380;-82
2023/11/16 02:24:24;;;;;;;;;0.00;0.00;;;;;13.01;100.00;101510.97;5075684;28;45443;-81
2023/11/16 02:26:51;;;;;;;;;0.00;0.00;;;;;13.01;100.00;101510.97;5076677;27;45332;-82
2023/11/16 02:29:16;;;;;;;;;0.00;0.00;;;;;13.00;100.00;101512.75;5076267;27;45602;-82
2023/11/16 02:31:42;;;;;;;;;0.00;0.00;;;;;13.01;100.00;101504.00;5076397;27;45312;-80
2023/11/16 02:34:08;;;;;;;;;0.00;0.00;;;;;13.03;100.00;101514.41;5058546;27;45459;-82
2023/11/16 02:36:33;;;;;;;;;0.00;0.00;;;;;13.02;100.00;101504.84;5076818;27;45311;-82
2023/11/16 02:38:59;;;;;;;;;0.00;0.00;;;;;13.03;100.00;101503.94;5075637;28;71529;-81
2023/11/16 02:41:25;;;;;;;;;0.00;0.00;;;;;13.04;100.00;101505.66;5076241;27;45932;-81
2023/11/16 02:43:50;;;;;;;;;0.00;0.00;;;;;13.01;100.00;101496.16;5075471;28;45385;-82
2023/11/16 02:46:17;;;;;;;;;0.00;0.00;;;;;13.03;100.00;101486.50;5074275;28;59529;-81
2023/11/16 02:48:42;;;;;;;;;0.00;0.00;;;;;13.04;100.00;101483.00;5075041;28;46544;-81
2023/11/16 02:51:08;;;;;;;;;0.00;0.00;;;;;13.05;100.00;101479.47;5076467;27;45407;-82
2023/11/16 02:53:34;;;;;;;;;0.00;0.00;;;;;13.08;100.00;101478.56;5076484;27;45653;-81
2023/11/16 02:56:03;;;;;;;;;0.00;0.00;;;;;13.12;100.00;101470.56;5075472;28;45615;-82
2023/11/16 02:58:28;;;;;;;;;0.00;0.00;;;;;13.10;100.00;101479.38;5075135;28;45341;-82
2023/11/16 03:00:54;;;;;;;;;0.00;0.00;;;;;13.10;100.00;101469.75;5075880;27;45342;-82
2023/11/16 03:03:19;;;;;;;;;0.00;0.00;;;;;13.09;100.00;101470.69;5076448;28;45294;-81
2023/11/16 03:05:45;;;;;;;;;0.00;0.00;;;;;13.12;100.00;101461.88;5075954;28;48604;-81
2023/11/16 03:08:11;;;;;;;;;0.00;0.00;;;;;13.13;100.00;101455.75;5074854;28;47315;-82
2023/11/16 03:10:37;;;;;;;;;0.00;0.00;;;;;13.15;100.00;101448.75;5076103;27;45163;-81
2023/11/16 03:13:03;;;;;;;;;0.00;0.00;;;;;13.12;100.00;101444.44;5075029;28;45233;-81
2023/11/16 03:15:28;;;;;;;;;0.00;0.00;;;;;13.12;100.00;101446.19;5074522;28;45326;-82
2023/11/16 03:17:56;;;;;;;;;0.00;0.00;;;;;13.16;100.00;101432.97;5073833;28;70105;-81
2023/11/16 03:20:21;;;;;;;;;0.00;0.00;;;;;13.18;100.00;101425.09;5076122;27;45413;-82
2023/11/16 03:22:46;;;;;;;;;0.00;0.00;;;;;13.21;100.00;101422.41;5074696;28;47640;-82
2023/11/16 03:25:12;;;;;;;;;0.00;0.00;;;;;13.22;100.00;101418.88;5075131;28;68068;-81
2023/11/16 03:27:37;;;;;;;;;0.00;0.00;;;;;13.23;100.00;101419.75;5074740;28;72523;-82
2023/11/16 03:30:04;;;;;;;;;0.00;0.00;;;;;13.25;100.00;101413.56;5074053;28;45708;-81
2023/11/16 03:32:29;;;;;;;;;0.00;0.00;;;;;13.25;100.00;101400.50;5075930;27;45444;-81
2023/11/16 03:34:54;;;;;;;;;0.00;0.00;;;;;13.27;100.00;101396.06;5057838;28;45605;-82
2023/11/16 03:37:20;;;;;;;;;0.00;0.00;;;;;13.28;100.00;101389.97;5075679;27;46316;-81
2023/11/16 03:39:46;;;;;;;;;0.00;0.00;;;;;13.27;100.00;101377.78;5074477;28;67347;-81
2023/11/16 03:42:11;;;;;;;;;0.00;0.00;;;;;13.27;100.00;101375.16;5078064;28;45314;-81
2023/11/16 03:44:37;;;;;;;;;0.00;0.00;;;;;13.26;100.00;101372.59;5077827;28;45474;-82
2023/11/16 03:47:04;;;;;;;;;0.00;0.00;;;;;13.30;100.00;101369.88;5079180;27;46431;-81
2023/11/16 03:49:29;;;;;;;;;0.00;0.00;;;;;13.32;100.00;101373.31;5079269;27;45366;-81
2023/11/16 03:51:55;;;;;;;;;0.00;0.00;;;;;13.31;100.00;101358.50;5079181;27;45471;-82
2023/11/16 03:54:20;;;;;;;;;0.00;0.00;;;;;13.31;100.00;101349.81;5077968;27;45283;-82
2023/11/16 03:56:46;;;;;;;;;0.00;0.00;;;;;13.32;100.00;101347.16;5076595;27;76888;-81
2023/11/16 03:59:15;;;;;;;;;0.00;0.00;;;;;13.33;100.00;101348.88;5094187;27;45881;-81
2023/11/16 04:01:41;;;;;;;;;0.00;0.00;;;;;13.34;100.00;101342.72;5061600;28;45304;-81
2023/11/16 04:04:10;;;;;;;;;0.00;0.00;;;;;13.32;100.00;101339.31;5078508;27;45392;-80
2023/11/16 04:06:39;;;;;;;;;0.00;0.00;;;;;13.33;100.00;101333.19;5060750;28;47239;-81
2023/11/16 04:09:06;;;;;;;;;0.00;0.00;;;;;13.34;100.00;101324.44;5077814;28;45377;-81
2023/11/16 04:11:31;;;;;;;;;0.00;0.00;;;;;13.33;100.00;101329.69;5079021;27;45435;-81
2023/11/16 04:13:57;;;;;;;;;0.00;0.00;;;;;13.35;100.00;101331.38;5078496;27;45401;-82
2023/11/16 04:16:24;;;;;;;;;0.00;0.00;;;;;13.38;100.00;101324.34;5078637;28;46528;-81
2023/11/16 04:18:55;;;;;;;;;0.00;0.00;;;;;13.36;100.00;101309.53;5078685;27;45347;-81
2023/11/16 04:21:21;;;;;;;;;0.00;0.00;;;;;13.40;100.00;101323.38;5077444;28;45409;-81
2023/11/16 04:23:57;;;;;;;;;0.00;0.00;;;;;13.41;100.00;101304.19;5078735;27;45351;-81
2023/11/16 04:26:23;;;;;;;;;0.00;0.00;;;;;13.39;100.00;101300.78;5077195;28;45578;-81
2023/11/16 04:28:49;;;;;;;;;0.00;0.00;;;;;13.40;100.00;101299.00;5078267;27;45494;-81
2023/11/16 04:31:15;;;;;;;;;0.00;0.00;;;;;13.40;100.00;101293.78;5078438;27;45433;-82
2023/11/16 04:33:41;;;;;;;;;0.00;0.00;;;;;13.40;100.00;101270.25;5077468;28;45537;-81
2023/11/16 04:36:08;;;;;;;;;2.25;2.25;;;;;13.41;100.00;101261.47;5078404;27;47324;-81
2023/11/16 04:38:34;;;;;;;;;0.00;0.00;;;;;13.40;100.00;101258.00;5077062;28;45863;-81
2023/11/16 04:41:00;;;;;;;;;0.75;0.75;;;;;13.40;100.00;101265.00;5077055;27;45242;-81
2023/11/16 04:43:25;;;;;;;;;0.00;0.00;;;;;13.37;100.00;101271.16;5090639;27;45352;-82
2023/11/16 04:45:52;;;;;;;;;0.00;0.00;;;;;13.39;100.00;101265.91;5056683;28;45437;-81
2023/11/16 04:48:19;;;;;;;;;0.00;0.00;;;;;13.41;100.00;101240.56;5058075;28;45288;-82
2023/11/16 04:50:44;;;;;;;;;0.00;0.00;;;;;13.44;100.00;101236.06;5056745;28;45390;-82
2023/11/16 04:53:10;;;;;;;;;0.00;0.00;;;;;13.47;100.00;101219.44;5057906;28;45349;-81
2023/11/16 04:55:36;;;;;;;;;0.00;0.00;;;;;13.50;100.00;101207.13;5073409;28;47061;-81
2023/11/16 04:58:02;;;;;;;;;4.00;4.00;;;;;13.53;100.00;101216.63;5056168;28;45293;-82
2023/11/16 05:00:27;;;;;;;;;0.00;0.00;;;;;13.54;100.00;101221.81;5057955;28;45455;-81
2023/11/16 05:02:52;;;;;;;;;0.00;0.00;;;;;13.54;100.00;101224.41;5057002;28;65262;-81
2023/11/16 05:05:18;;;;;;;;;0.00;0.00;;;;;13.55;100.00;101214.81;5055909;28;54803;-81
2023/11/16 05:07:43;;;;;;;;;0.00;0.00;;;;;13.55;100.00;101202.56;5056911;28;64787;-82
2023/11/16 05:10:11;;;;;;;;;0.00;0.00;;;;;13.57;100.00;101196.44;5056393;28;45476;-82
2023/11/16 05:12:39;;;;;;;;;2.25;2.25;;;;;13.58;100.00;101192.91;5057283;28;45441;-81
2023/11/16 05:15:06;;;;;;;;;0.00;0.00;;;;;13.57;100.00;101188.59;5057555;28;45487;-81
2023/11/16 05:17:32;;;;;;;;;0.50;0.50;;;;;13.55;100.00;101179.03;5056189;28;45414;-80
2023/11/16 05:19:57;;;;;;;;;0.00;0.00;;;;;13.52;100.00;101178.28;5056465;28;45468;-81
2023/11/16 05:22:23;;;;;;;;;0.00;0.00;;;;;13.51;100.00;101181.81;5057246;28;55368;-81
2023/11/16 05:24:48;;;;;;;;;0.00;0.00;;;;;13.51;100.00;101172.22;5057280;28;46002;-81
2023/11/16 05:27:14;;;;;;;;;0.00;0.00;;;;;13.51;100.00;101176.59;5073803;27;73186;-81
2023/11/16 05:29:39;;;;;;;;;0.00;0.00;;;;;13.51;100.00;101182.66;5077459;27;45345;-82
2023/11/16 05:32:06;;;;;;;;;0.00;0.00;;;;;13.51;100.00;101176.59;5076284;27;45465;-81
2023/11/16 05:34:32;;;;;;;;;0.00;0.00;;;;;13.50;100.00;101172.25;5077519;27;46399;-82
2023/11/16 05:36:57;;;;;;;;;0.00;0.00;;;;;13.51;100.00;101168.75;5077421;27;45213;-81
2023/11/16 05:39:22;;;;;;;;;0.00;0.00;;;;;13.52;100.00;101160.84;5075565;27;69320;-82
2023/11/16 05:41:48;;;;;;;;;0.00;0.00;;;;;13.52;100.00;101157.34;5075727;28;45424;-82
2023/11/16 05:44:13;;;;;;;;;0.00;0.00;;;;;13.51;100.00;101146.06;5076111;28;45452;-82
2023/11/16 05:46:39;;;;;;;;;0.75;0.75;;;;;13.49;100.00;101121.72;5076954;28;47552;-81
2023/11/16 05:49:06;;;;;;;;;0.00;0.00;;;;;13.48;100.00;101109.56;5075371;28;65628;-82
2023/11/16 05:51:33;;;;;;;;;0.00;0.00;;;;;13.44;100.00;101105.31;5076189;28;45454;-81
2023/11/16 05:53:58;;;;;;;;;0.00;0.00;;;;;13.41;100.00;101091.50;5075995;28;47100;-82
2023/11/16 05:56:24;;;;;;;;;0.00;0.00;;;;;13.40;100.00;101090.66;5058759;28;45748;-81
2023/11/16 05:58:49;;;;;;;;;0.00;0.00;;;;;13.37;100.00;101080.28;5076633;27;60893;-81
2023/11/16 06:01:14;;;;;;;;;0.00;0.00;;;;;13.36;100.00;101068.16;5075861;28;45326;-81
2023/11/16 06:03:40;;;;;;;;;0.00;0.00;;;;;13.35;100.00;101058.59;5076514;28;46645;-82
2023/11/16 06:06:05;;;;;;;;;0.00;0.00;;;;;13.34;100.00;101062.97;5057965;28;69770;-81
2023/11/16 06:08:31;;;;;;;;;0.00;0.00;;;;;13.34;100.00;101051.66;5075852;28;45410;-81
2023/11/16 06:10:57;;;;;;;;;0.00;0.00;;;;;13.32;100.00;101038.66;5075533;28;45449;-82
2023/11/16 06:13:23;;;;;;;;;0.00;0.00;;;;;13.30;100.00;101029.13;5075828;28;46153;-81
2023/11/16 06:15:49;;;;;;;;;0.00;0.00;;;;;13.27;100.00;101005.69;5076977;27;45302;-82
2023/11/16 06:18:15;;;;;;;;;0.00;0.00;;;;;13.24;100.00;100988.38;5075812;28;45420;-82
2023/11/16 06:20:41;;;;;;;;;0.00;0.00;;;;;13.25;100.00;100969.16;5075635;28;45481;-80
2023/11/16 06:23:07;;;;;;;;;0.00;0.00;;;;;13.25;100.00;100963.91;5076762;28;46300;-79
2023/11/16 06:25:32;;;;;;;;;0.00;0.00;;;;;13.23;100.00;100962.28;5075296;28;72214;-80
2023/11/16 06:27:58;;;;;;;;;0.00;0.00;;;;;13.22;100.00;100953.56;5076205;27;53564;-79
2023/11/16 06:30:24;;;;;;;;;0.00;0.00;;;;;13.22;100.00;100950.09;5075311;27;45430;-79
2023/11/16 06:32:49;;;;;;;;;0.00;0.00;;;;;13.24;100.00;100946.56;5076663;27;47236;-80
2023/11/16 06:35:14;;;;;;;;;0.00;0.00;;;;;13.25;100.00;100923.88;5075296;28;70286;-90
2023/11/16 06:37:40;;;;;;;;;0.75;0.75;;;;;13.26;100.00;100897.69;5077721;28;45376;-83
2023/11/16 06:40:08;;;;;;;;;0.00;0.00;;;;;13.26;100.00;100897.69;5076974;28;45508;-86
2023/11/16 06:42:36;;;;;;;;;0.00;0.00;;;;;13.24;100.00;100888.16;5076422;28;47460;-88
2023/11/16 06:45:05;;;;;;;;;0.00;0.00;;;;;13.24;100.00;100885.56;5075769;27;45421;-86
2023/11/16 06:47:32;;;;;;;;;0.00;0.00;;;;;13.25;100.00;100874.19;5075777;28;45235;-89
2023/11/16 06:49:57;;;;;;;;;0.00;0.00;;;;;13.24;100.00;100864.63;5076116;28;45269;-81
2023/11/16 06:52:26;;;;;;;;;0.00;0.00;;;;;13.22;100.00;100858.63;5076398;27;47204;-84
2023/11/16 06:54:52;;;;;;;;;0.00;0.00;;;;;13.22;100.00;100854.25;5074946;28;45372;-84
2023/11/16 06:57:17;;;;;;;;;0.75;0.75;;;;;13.20;100.00;100831.69;5058667;28;45343;-82
2023/11/16 06:59:43;;;;;;;;;3.00;3.00;;;;;13.21;100.00;100825.56;5057432;28;68702;-84
2023/11/16 07:02:09;;;;;;;;;0.00;0.00;;;;;13.21;100.00;100812.50;5075186;28;45392;-80
2023/11/16 07:04:39;;;;;;;;;0.00;0.00;;;;;13.19;100.00;100799.47;5058006;28;45356;-81
2023/11/16 07:07:05;;;;;;;;;0.00;0.00;;;;;13.22;100.00;100777.59;5075247;28;45427;-80
2023/11/16 07:09:31;;;;;;;;;2.67;2.67;;;;;13.24;100.00;100765.31;5074866;27;71523;-81
2023/11/16 07:11:57;;;;;;;;;0.00;0.00;;;;;13.23;100.00;100755.78;5075921;27;45377;-80
2023/11/16 07:14:23;;;;;;;;;0.25;0.25;;;;;13.25;100.00;100767.03;5076287;27;45346;-80
2023/11/16 07:16:50;;;;;;;;;0.00;0.00;;;;;13.24;100.00;100758.34;5078629;27;45409;-80
2023/11/16 07:19:16;;;;;;;;;0.00;0.00;;;;;13.24;100.00;100760.09;5079695;27;45477;-80
2023/11/16 07:21:41;;;;;;;;;0.00;0.00;;;;;13.22;100.00;100735.78;5077937;28;46043;-79
2023/11/16 07:24:07;;;;;;;;;0.00;0.00;;;;;13.19;100.00;100723.69;5079564;27;45509;-80
2023/11/16 07:26:33;;;;;;;;;0.00;0.00;;;;;13.17;100.00;100710.69;5079520;27;45327;-80
2023/11/16 07:28:58;;;;;;;;;0.00;0.00;;;;;13.14;100.00;100689.03;5078920;27;58400;-79
2023/11/16 07:31:27;;;;;;;;;0.00;0.00;;;;;13.13;100.00;100677.75;5076915;27;74544;-80
2023/11/16 07:33:53;;;;;;;;;0.00;0.00;;;;;13.12;100.00;100683.88;5078298;27;45295;-80
2023/11/16 07:36:25;;;;;;;;;0.00;0.00;;;;;13.09;100.00;100675.31;5079303;27;45266;-80
2023/11/16 07:38:52;;;;;;;;;0.00;0.00;;;;;13.09;100.00;100670.06;5078329;28;45701;-81
2023/11/16 07:41:17;;;;;;;;;0.00;0.00;;;;;13.12;100.00;100676.03;5076842;27;47045;-80
2023/11/16 07:43:43;;;;;;;;;1.75;1.00;;;;;13.10;100.00;100671.78;5081512;27;45679;-81
2023/11/16 07:46:09;;;;;;;;;0.00;0.00;;;;;13.11;100.00;100669.13;5092447;27;45440;-81
2023/11/16 07:48:34;;;;;;;;;0.00;0.00;;;;;13.13;100.00;100669.91;5078398;27;67197;-79
2023/11/16 07:51:02;;;;;;;;;3.00;3.00;;;;;13.15;100.00;100667.22;5088736;27;45431;-89
2023/11/16 07:53:28;;;;;;;;;0.00;0.00;;;;;13.17;100.00;100670.63;5104430;27;45450;-81
2023/11/16 07:55:54;;;;;;;;;0.00;0.00;;;;;13.15;100.00;100682.91;5078079;28;45395;-81
2023/11/16 07:58:20;;;;;;;;;0.00;0.00;;;;;13.10;100.00;100705.75;5077915;28;45406;-81
2023/11/16 08:00:55;;;;;;;;;0.00;0.00;;;;;13.06;100.00;100705.03;5077258;28;47274;-81
2023/11/16 08:06:05;;;;;;;;;0.00;0.00;;;;;13.06;100.00;100710.25;5076903;27;45388;-80
2023/11/16 08:08:31;;;;;;;;;0.00;0.00;;;;;13.06;100.00;100704.19;5070268;27;45931;-80
2023/11/16 08:10:57;;;;;;;;;0.00;0.00;;;;;13.07;100.00;100695.41;5071505;27;47090;-81
2023/11/16 08:13:22;;;;;;;;;0.00;0.00;;;;;13.05;100.00;100687.63;5065178;27;45994;-82
2023/11/16 08:15:56;;;;;;;;;0.00;0.00;;;;;13.05;100.00;100690.25;5078187;28;45955;-82
2023/11/16 08:18:21;;;;;;;;;0.00;0.00;;;;;13.05;100.00;100694.63;5078063;27;45372;-82
2023/11/16 08:20:47;;;;;;;;;0.00;0.00;;;;;13.04;100.00;100674.63;5079691;27;47289;-82
2023/11/16 08:23:13;;;;;;;;;0.00;0.00;;;;;13.05;100.00;100652.81;5078370;27;45433;-82
2023/11/16 08:25:39;;;;;;;;;0.00;0.00;;;;;13.03;100.00;100628.53;5073221;27;45483;-82
2023/11/16 08:28:08;;;;;;;;;0.00;0.00;;;;;12.99;100.00;100635.63;5077026;28;45342;-82
2023/11/16 08:30:33;;;;;;;;;0.00;0.00;;;;;13.00;100.00;100631.25;5076809;27;47055;-82
2023/11/16 08:33:00;;;;;;;;;0.00;0.00;;;;;12.98;100.00;100623.47;5076569;27;45469;-81
2023/11/16 08:35:26;;;;;;;;;0.00;0.00;;;;;12.95;100.00;100626.22;5077811;27;45679;-81
2023/11/16 08:37:54;;;;;;;;;0.50;0.50;;;;;12.93;100.00;100623.66;5069339;28;45321;-81
2023/11/16 08:40:19;;;;;;;;;0.00;0.00;;;;;12.91;100.00;100607.22;5084685;27;46455;-81
2023/11/16 08:42:47;;;;;;;;;0.00;0.00;;;;;12.94;100.00;100627.97;5066588;28;45491;-81
2023/11/16 08:45:24;;;;;;;;;0.00;0.00;;;;;13.00;100.00;100621.66;5060476;28;45420;-81
2023/11/16 08:47:59;;;;;;;;;0.00;0.00;;;;;12.98;100.00;100608.66;5077979;27;45366;-81
2023/11/16 08:50:25;;;;;;;;;0.00;0.00;;;;;12.93;100.00;100592.31;5077071;27;46254;-81
2023/11/16 08:52:51;;;;;;;;;0.00;0.00;;;;;12.96;100.00;100571.31;5076591;28;45431;-81
2023/11/16 08:55:20;;;;;;;;;0.00;0.00;;;;;12.98;100.00;100564.25;5077998;27;45393;-81
2023/11/16 08:57:47;;;;;;;;;0.00;0.00;;;;;13.00;100.00;100545.91;5078233;27;45253;-82
2023/11/16 09:00:28;;;;;;;;;0.00;0.00;;;;;13.05;100.00;100556.97;5066902;28;47496;-81
2023/11/16 09:02:55;;;;;;;;;0.00;0.00;;;;;13.10;100.00;100569.88;5074941;27;45366;-81
2023/11/16 09:05:23;;;;;;;;;0.00;0.00;;;;;13.12;100.00;100550.59;5077429;28;45377;-81
2023/11/16 09:07:49;;;;;;;;;0.00;0.00;;;;;13.17;100.00;100537.34;5073050;28;45391;-80
2023/11/16 09:10:14;;;;;;;;;0.00;0.00;;;;;13.15;100.00;100513.03;5062306;27;46291;-81
2023/11/16 09:12:41;;;;;;;;;0.00;0.00;;;;;13.09;100.00;100472.34;5088296;27;57544;-81
2023/11/16 09:15:09;;;;;;;;;0.00;0.00;;;;;13.14;100.00;100464.28;5093525;27;45339;-80
2023/11/16 09:17:36;;;;;;;;;0.00;0.00;;;;;13.13;100.00;100449.50;5088027;27;45575;-81
2023/11/16 09:20:04;;;;;;;;;0.00;0.00;;;;;13.15;100.00;100456.38;5072822;27;47057;-82
2023/11/16 09:22:30;;;;;;;;;0.00;0.00;;;;;13.13;100.00;100426.00;5078590;27;45456;-83
2023/11/16 09:25:10;;;;;;;;;;;;;;;;;;;;;
2023/11/16 09:27:38;;;;;;;;;0.00;0.00;;;;;13.08;100.00;100428.81;5050995;28;68451;-84
2023/11/16 09:30:05;;;;;;;;;0.00;0.00;;;;;13.10;100.00;100410.47;5077314;27;46258;-82
2023/11/16 09:32:33;;;;;;;;;0.00;0.00;;;;;13.09;100.00;100414.84;5075885;28;45452;-82
2023/11/16 09:34:59;;;;;;;;;0.00;0.00;;;;;13.13;100.00;100392.91;5075723;28;46063;-81
2023/11/16 09:37:32;;;;;;;;;0.00;0.00;;;;;13.18;100.00;100383.06;5058231;27;45382;-81
2023/11/16 09:39:57;;;;;;;;;0.00;0.00;;;;;13.20;100.00;100364.69;5075136;28;46190;-84
2023/11/16 09:42:26;;;;;;;;;0.00;0.00;;;;;13.23;100.00;100367.19;5058774;28;45356;-83
2023/11/16 09:45:00;;;;;;;;;0.00;0.00;;;;;13.19;100.00;100355.19;5081298;27;45323;-83
2023/11/16 09:47:29;;;;;;;;;0.00;0.00;;;;;13.20;100.00;100349.00;5076936;27;45219;-83
2023/11/16 09:49:58;;;;;;;;;0.00;0.00;;;;;13.16;100.00;100327.41;5085203;27;47141;-83
2023/11/16 09:52:38;;;;;;;;;0.00;0.00;;;;;13.13;100.00;100327.56;5083116;27;45526;-84
2023/11/16 09:55:06;;;;;;;;;0.00;0.00;;;;;13.03;100.00;100309.75;5080064;27;45211;-83
2023/11/16 09:57:34;;;;;;;;;0.00;0.00;;;;;12.98;100.00;100304.72;5077119;27;45514;-82
2023/11/16 10:00:13;;;;;;;;;0.00;0.00;;;;;13.05;100.00;100294.84;5070550;28;47101;-81
2023/11/16 10:02:42;;;;;;;;;0.00;0.00;;;;;13.06;100.00;100279.13;5076861;27;45315;-83
2023/11/16 10:05:22;;;;;;;;;1.00;1.00;;;;;13.04;100.00;100280.94;5075994;28;45484;-83
2023/11/16 10:07:48;;;;;;;;;0.00;0.00;;;;;13.04;100.00;100267.88;5075422;28;45369;-83
2023/11/16 10:10:16;;;;;;;;;1.00;1.00;;;;;13.02;100.00;100266.25;5073019;28;46233;-83
2023/11/16 10:12:50;;;;;;;;;0.00;0.00;;;;;13.05;100.00;100255.66;5074611;28;45475;-83
2023/11/16 10:15:22;;;;;;;;;0.00;0.00;;;;;13.06;100.00;100250.38;5059057;28;45374;-83
2023/11/16 10:17:48;;;;;;;;;1.00;1.00;;;;;12.98;100.00;100252.47;5075318;28;45343;-83
2023/11/16 10:20:14;;;;;;;;;0.00;0.00;;;;;12.96;100.00;100238.66;5075443;28;48181;-83
2023/11/16 10:22:46;;;;;;;;;0.00;0.00;;;;;12.96;100.00;100242.13;5076854;27;45318;-84
2023/11/16 10:25:14;;;;;;;;;0.00;0.00;;;;;13.00;100.00;100226.28;5063138;27;45346;-84
2023/11/16 10:27:41;;;;;;;;;0.00;0.00;;;;;13.02;100.00;100209.63;5076362;27;45338;-83
2023/11/16 10:30:12;;;;;;;;;0.00;0.00;;;;;13.05;100.00;100221.69;5076371;27;46469;-84
2023/11/16 10:32:38;;;;;;;;;0.00;0.00;;;;;13.03;100.00;100210.47;5075417;27;45488;-82
2023/11/16 10:35:09;;;;;;;;;0.00;0.00;;;;;13.04;100.00;100199.09;5076438;27;45267;-82
2023/11/16 10:37:34;;;;;;;;;0.00;0.00;;;;;12.95;100.00;100196.00;5075430;27;45468;-82
2023/11/16 10:40:03;;;;;;;;;0.00;0.00;;;;;12.96;100.00;100189.88;5076097;27;47662;-81
2023/11/16 10:42:29;;;;;;;;;0.00;0.00;;;;;12.99;100.00;100170.59;5075896;27;45290;-83
2023/11/16 10:44:55;;;;;;;;;0.00;0.00;;;;;12.99;100.00;100165.38;5074801;28;45583;-82
2023/11/16 10:47:21;;;;;;;;;0.00;0.00;;;;;13.03;100.00;100166.91;5075261;28;45538;-82
2023/11/16 10:49:48;;;;;;;;;0.00;0.00;;;;;12.97;100.00;100149.75;5073283;28;47225;-82
2023/11/16 10:52:15;;;;;;;;;0.00;0.00;;;;;13.01;100.00;100140.00;5091788;27;45563;-81
2023/11/16 10:54:47;;;;;;;;;0.00;0.00;;;;;13.01;100.00;100121.72;5076644;27;45454;-87
2023/11/16 10:57:16;;;;;;;;;0.00;0.00;;;;;13.03;100.00;100113.81;5075569;28;45523;-83
2023/11/16 10:59:50;;;;;;;;;0.00;0.00;;;;;13.01;100.00;100105.19;5075661;27;45457;-83
2023/11/16 11:02:17;;;;;;;;;0.00;0.00;;;;;13.01;100.00;100099.97;5075298;28;45365;-85
2023/11/16 11:04:43;;;;;;;;;0.00;0.00;;;;;13.04;100.00;100092.84;5075260;28;45251;-81
2023/11/16 11:07:09;;;;;;;;;0.75;0.75;;;;;13.07;100.00;100071.75;5076197;27;45451;-85
2023/11/16 11:09:42;;;;;;;;;0.00;0.00;;;;;13.04;100.00;100050.16;5074816;28;46346;-82
2023/11/16 11:12:15;;;;;;;;;0.00;0.00;;;;;13.07;100.00;100042.19;5067177;27;45342;-82
2023/11/16 11:14:46;;;;;;;;;0.00;0.00;;;;;13.06;100.00;100032.69;5054136;28;45402;-82
2023/11/16 11:17:18;;;;;;;;;0.00;0.00;;;;;13.10;100.00;100026.38;5071886;28;45518;-81
2023/11/16 11:19:59;;;;;;;;;0.00;0.00;;;;;13.14;100.00;100027.91;5075835;28;46375;-81
2023/11/16 11:22:27;;;;;;;;;0.00;0.00;;;;;13.16;100.00;100018.22;5074934;27;68307;-81